Flugplatz Schweighofen

Für EDRO sind keine METAR/TAF Berichte vorhanden.
Es werden die Flugwettermeldungen vom Flugplatz Karlsruhe Baden-Baden in 28 km Entfernung angezeigt.

Bericht für EDSB

vom 28.09. um 22:50 UTC

variable Windrichtung mit 1 kt

Sichtweite 10 km oder mehr

gering bewölkt in 7600 ft

aufgebrochene Bewölkung in 18000 ft

Temperatur 12.0°C

Taupunkt 11.0°C

Luftfeuchtigkeit 94%

Luftdruck 1019 hPa

EDSB 282250Z AUTO VRB01KT 9999 FEW076/// BKN180/// 12/11 Q1019

Prognose für EDSB

vom 28.09. um 17:00 UTC

Am 28.09. zwischen 18:00 UTC und 20:00 UTC

Wind 7 kt aus 20°

Sichtweite 10 km oder mehr

aufgelockert bewölkt in 3500 ft


Am 28.09. zwischen 20:00 und 22:00 UTC übergehend zu

variable Windrichtung mit 3 kt

Sichtweite 10 km oder mehr

aufgelockert bewölkt in 3500 ft


Zwischen 02:00 und 06:00 UTC übergehend zu

Wind 10 kt aus 210°

Sichtweite 10 km oder mehr

aufgelockert bewölkt in 3500 ft


Zwischen 08:00 und 10:00 UTC übergehend zu

Wind 15 kt aus 230° in Böen 25 kt

Sichtweite 10 km oder mehr

aufgelockert bewölkt in 3500 ft


Zwischen 10:00 UTC und 15:00 UTC zeitweise

Regenschauer

aufgebrochene Bewölkung in 3000 ft


Zwischen 16:00 und 18:00 UTC übergehend zu

Wind 8 kt aus 220°

Sichtweite 10 km oder mehr

aufgelockert bewölkt in 3500 ft

TAF EDSB 281700Z 2818/2918 02007KT 9999 SCT035 BECMG 2820/2822 VRB03KT BECMG 2902/2906 21010KT BECMG 2908/2910 23015G25KT TEMPO 2910/2915 SHRA BKN030CB BECMG 2916/2918 22008KT
Impressum